Time;durP1;ratioP1;P1;durP2;ratioP2;P2;SDS_P1;SDS_P2;PMS_P1;PMS_P2;Temp;Humidity;BMP_temperature;BMP_pressure;BME280_temperature;BME280_humidity;BME280_pressure;Samples;Min_cycle;Max_cycle;Signal;HPM_P1;HPM_P2
2023/04/03 00:01:24;;;;;;;5.00;4.10;;;;;;;8.27;88.87;100468.28;107597;1250;97796;-63
2023/04/03 00:03:53;;;;;;;5.80;4.50;;;;;;;8.22;88.65;100467.86;107675;1256;111174;-64
2023/04/03 00:06:23;;;;;;;5.50;3.90;;;;;;;8.14;88.48;100470.25;107671;1251;109617;-64
2023/04/03 00:08:52;;;;;;;4.90;3.70;;;;;;;8.09;88.75;100471.02;107555;1251;107682;-69
2023/04/03 00:11:21;;;;;;;5.60;4.20;;;;;;;8.00;88.87;100473.06;107576;1253;97819;-69
2023/04/03 00:13:50;;;;;;;7.60;3.80;;;;;;;7.95;89.28;100472.56;107629;1251;98382;-69
2023/04/03 00:16:18;;;;;;;5.40;3.80;;;;;;;7.91;89.36;100477.33;107648;1251;111722;-68
2023/04/03 00:18:47;;;;;;;5.80;4.10;;;;;;;7.87;89.33;100476.60;107785;1251;109047;-67
2023/04/03 00:21:16;;;;;;;5.20;4.30;;;;;;;7.83;89.49;100474.56;107612;1249;108615;-70
2023/04/03 00:23:44;;;;;;;6.10;4.70;;;;;;;7.79;89.57;100474.90;107680;1251;97819;-69
2023/04/03 00:26:13;;;;;;;4.70;3.80;;;;;;;7.79;89.58;100471.84;107619;1251;98357;-69
2023/04/03 00:28:42;;;;;;;4.60;3.80;;;;;;;7.79;89.18;100471.48;107634;1251;111021;-69
2023/04/03 00:31:10;;;;;;;7.20;4.30;;;;;;;7.79;88.89;100471.67;107702;1255;109185;-69
2023/04/03 00:33:39;;;;;;;5.50;4.40;;;;;;;7.77;88.49;100475.23;107689;1251;108515;-69
2023/04/03 00:36:10;;;;;;;4.60;3.90;;;;;;;7.78;88.50;100473.22;107694;1251;97812;-69
2023/04/03 00:38:39;;;;;;;7.20;3.60;;;;;;;7.79;88.32;100477.59;107674;1251;97903;-69
2023/04/03 00:41:08;;;;;;;5.90;4.10;;;;;;;7.75;87.89;100483.27;107717;1251;112333;-68
2023/04/03 00:43:37;;;;;;;6.90;3.90;;;;;;;7.78;87.99;100487.70;107594;1257;109095;-69
2023/04/03 00:46:06;;;;;;;4.40;3.50;;;;;;;7.78;87.64;100491.61;107626;1250;107252;-69
2023/04/03 00:48:40;;;;;;;9.60;3.70;;;;;;;7.78;87.53;100494.61;107615;1250;97813;-69
2023/04/03 00:51:23;;;;;;;4.80;4.10;;;;;;;7.76;87.13;100497.97;107796;1251;98371;-69
2023/04/03 00:53:59;;;;;;;5.10;4.00;;;;;;;7.70;86.92;100495.10;107687;1250;111603;-68
2023/04/03 00:56:29;;;;;;;5.60;4.20;;;;;;;7.66;86.85;100501.09;107721;1251;108681;-69
2023/04/03 00:59:04;;;;;;;4.60;3.60;;;;;;;7.67;86.83;100498.76;107587;1256;107341;-69
2023/04/03 01:01:33;;;;;;;4.80;4.00;;;;;;;7.66;86.74;100498.44;107631;1251;97905;-68
2023/04/03 01:04:02;;;;;;;5.40;4.10;;;;;;;7.66;86.89;100501.65;107757;1251;97866;-70
2023/04/03 01:06:36;;;;;;;4.50;3.20;;;;;;;7.64;86.54;100502.50;107635;1251;112262;-69
2023/04/03 01:09:07;;;;;;;8.20;4.20;;;;;;;7.66;86.29;100500.42;107653;1251;109393;-69
2023/04/03 01:11:36;;;;;;;4.80;3.60;;;;;;;7.66;85.91;100502.40;107701;1251;107798;-70
2023/04/03 01:14:06;;;;;;;4.80;3.20;;;;;;;7.65;85.68;100505.30;107862;1251;97821;-67
2023/04/03 01:16:35;;;;;;;5.30;3.70;;;;;;;7.65;85.63;100496.87;107843;1251;97687;-70
2023/04/03 01:19:08;;;;;;;4.90;3.50;;;;;;;7.67;85.48;100500.30;107792;1251;111474;-69
2023/04/03 01:22:04;;;;;;;5.20;3.40;;;;;;;7.65;84.91;100501.05;107815;1251;109024;-70
2023/04/03 01:24:38;;;;;;;5.30;3.50;;;;;;;7.62;85.10;100502.70;107659;1251;107658;-72
2023/04/03 01:27:10;;;;;;;5.10;3.10;;;;;;;7.65;85.31;100502.29;107632;1251;97831;-69
2023/04/03 01:29:41;;;;;;;3.40;2.90;;;;;;;7.64;84.74;100503.98;107648;1249;97735;-69
2023/04/03 01:32:09;;;;;;;4.20;3.30;;;;;;;7.60;84.60;100506.81;107727;1251;110070;-69
2023/04/03 01:34:38;;;;;;;5.30;3.80;;;;;;;7.57;84.55;100508.86;107702;1251;109571;-68
2023/04/03 01:37:06;;;;;;;4.10;3.40;;;;;;;7.55;84.60;100514.73;107637;1251;108218;-68
2023/04/03 01:39:35;;;;;;;4.30;3.40;;;;;;;7.54;84.73;100514.23;107573;1251;97815;-70
2023/04/03 01:42:04;;;;;;;5.80;4.10;;;;;;;7.50;84.57;100512.17;107586;1251;97809;-69
2023/04/03 01:44:36;;;;;;;4.60;3.40;;;;;;;7.46;84.43;100517.92;107640;1251;111734;-68
2023/04/03 01:47:07;;;;;;;6.50;3.70;;;;;;;7.45;84.73;100519.02;107623;1251;108710;-68
2023/04/03 01:49:35;;;;;;;5.40;4.20;;;;;;;7.49;84.86;100520.47;107777;1250;107671;-68
2023/04/03 01:52:04;;;;;;;3.80;3.10;;;;;;;7.48;84.37;100523.27;107562;1251;97800;-68
2023/04/03 01:54:32;;;;;;;5.40;4.20;;;;;;;7.41;84.28;100527.20;107496;1251;98480;-68
2023/04/03 01:57:01;;;;;;;4.80;3.60;;;;;;;7.40;84.45;100532.08;107668;1251;111816;-67
2023/04/03 01:59:30;;;;;;;5.30;4.10;;;;;;;7.41;84.26;100530.43;107634;1251;110501;-68
2023/04/03 02:01:58;;;;;;;4.60;3.50;;;;;;;7.40;83.65;100525.85;107487;1251;108276;-70
2023/04/03 02:04:27;;;;;;;6.20;3.60;;;;;;;7.35;83.11;100532.84;107672;1251;97848;-69
2023/04/03 02:06:56;;;;;;;4.70;3.10;;;;;;;7.32;83.41;100534.49;107667;1251;97851;-68
2023/04/03 02:09:26;;;;;;;3.90;3.40;;;;;;;7.33;83.67;100535.70;107754;1251;111115;-69
2023/04/03 02:11:54;;;;;;;6.30;3.80;;;;;;;7.35;83.28;100535.70;107701;1255;109121;-68
2023/04/03 02:14:23;;;;;;;6.30;3.10;;;;;;;7.35;83.14;100533.90;107678;1251;107757;-68
2023/04/03 02:16:52;;;;;;;4.50;3.60;;;;;;;7.36;82.96;100540.06;107774;1251;97827;-67
2023/04/03 02:19:24;;;;;;;4.90;3.70;;;;;;;7.38;82.89;100542.81;107886;1251;97825;-68
2023/04/03 02:21:52;;;;;;;5.50;4.30;;;;;;;7.34;82.52;100545.36;107806;1249;112249;-67
2023/04/03 02:24:20;;;;;;;5.70;4.60;;;;;;;7.31;82.64;100549.94;107599;1249;109861;-68
2023/04/03 02:26:49;;;;;;;5.90;4.10;;;;;;;7.26;82.71;100549.66;107579;1251;107710;-69
2023/04/03 02:29:18;;;;;;;4.90;3.40;;;;;;;7.22;82.49;100548.86;107608;1251;97828;-71
2023/04/03 02:31:46;;;;;;;6.60;4.30;;;;;;;7.20;82.60;100550.98;107745;1257;98046;-69
2023/04/03 02:34:15;;;;;;;8.70;4.00;;;;;;;7.18;82.71;100557.67;107627;1250;110728;-69
2023/04/03 02:36:45;;;;;;;5.70;3.90;;;;;;;7.14;82.81;100554.27;107612;1251;109098;-68
2023/04/03 02:39:14;;;;;;;6.40;4.00;;;;;;;7.12;83.02;100555.89;107718;1250;107737;-67
2023/04/03 02:41:43;;;;;;;5.40;4.10;;;;;;;7.08;82.83;100556.52;107577;1250;98304;-67
2023/04/03 02:44:16;;;;;;;7.10;4.10;;;;;;;7.05;82.94;100561.17;107622;1250;97752;-66
2023/04/03 02:46:44;;;;;;;6.50;3.90;;;;;;;7.04;83.06;100555.92;107548;1251;112023;-67
2023/04/03 02:49:13;;;;;;;5.40;4.00;;;;;;;7.07;83.04;100559.80;107566;1251;110174;-68
2023/04/03 02:51:42;;;;;;;4.00;3.40;;;;;;;7.05;82.99;100560.45;107597;1251;106644;-68
2023/04/03 02:54:13;;;;;;;5.30;4.20;;;;;;;7.04;82.76;100559.36;107510;1250;97912;-69
2023/04/03 02:56:45;;;;;;;5.10;3.80;;;;;;;7.03;82.83;100562.09;107500;1250;97893;-68
2023/04/03 02:59:14;;;;;;;4.20;3.40;;;;;;;7.04;82.61;100560.27;107562;1251;111687;-67
2023/04/03 03:01:43;;;;;;;5.50;3.10;;;;;;;7.06;82.51;100564.15;107720;1249;109945;-67
2023/04/03 03:04:11;;;;;;;3.50;2.90;;;;;;;7.08;82.10;100566.13;107608;1250;109334;-67
2023/04/03 03:06:40;;;;;;;4.40;3.00;;;;;;;7.13;81.92;100567.73;107623;1250;97841;-68
2023/04/03 03:09:10;;;;;;;5.50;2.70;;;;;;;7.15;81.54;100569.74;107693;1250;98374;-68
2023/04/03 03:11:39;;;;;;;20.10;11.10;;;;;;;7.15;81.45;100565.83;107670;1251;111261;-68
2023/04/03 03:14:08;;;;;;;5.10;3.70;;;;;;;7.12;81.13;100570.85;107920;1251;109039;-68
2023/04/03 03:16:37;;;;;;;3.70;3.00;;;;;;;7.09;80.78;100577.70;107872;1250;109414;-68
2023/04/03 03:19:06;;;;;;;6.30;3.30;;;;;;;7.05;80.81;100578.69;107830;1252;97904;-69
2023/04/03 03:21:35;;;;;;;3.40;2.70;;;;;;;7.02;80.78;100577.52;107623;1253;97773;-69
2023/04/03 03:24:05;;;;;;;4.70;3.00;;;;;;;7.03;80.92;100575.60;107667;1250;112013;-67
2023/04/03 03:26:35;;;;;;;5.40;3.70;;;;;;;7.01;80.70;100586.27;107782;1251;108655;-67
2023/04/03 03:29:04;;;;;;;3.50;3.00;;;;;;;6.99;80.98;100590.70;107695;1251;106865;-70
2023/04/03 03:31:33;;;;;;;7.70;3.50;;;;;;;6.97;81.15;100593.20;107573;1251;97870;-68
2023/04/03 03:34:02;;;;;;;5.80;4.00;;;;;;;6.96;81.27;100596.51;107621;1253;97700;-67
2023/04/03 03:36:30;;;;;;;7.30;4.90;;;;;;;6.92;81.65;100603.42;107622;1250;112254;-68
2023/04/03 03:38:59;;;;;;;6.50;4.50;;;;;;;6.87;81.79;100606.21;107663;1251;109719;-70
2023/04/03 03:41:28;;;;;;;6.40;4.90;;;;;;;6.87;82.14;100606.98;107627;1251;108073;-67
2023/04/03 03:43:57;;;;;;;8.00;5.90;;;;;;;6.88;82.30;100610.44;107620;1253;97892;-68
2023/04/03 03:46:29;;;;;;;11.50;5.90;;;;;;;6.86;82.32;100609.69;107607;1250;97803;-68
2023/04/03 03:48:57;;;;;;;11.70;8.60;;;;;;;6.84;82.49;100608.83;107647;1251;112072;-68
2023/04/03 03:51:26;;;;;;;10.00;7.50;;;;;;;6.83;82.68;100614.91;107785;1250;108722;-68
2023/04/03 03:53:55;;;;;;;10.60;7.60;;;;;;;6.81;82.85;100619.52;107596;1256;108225;-71
2023/04/03 03:56:23;;;;;;;9.70;7.60;;;;;;;6.80;83.31;100619.23;107613;1249;97845;-70
2023/04/03 03:58:52;;;;;;;15.70;8.90;;;;;;;6.77;83.49;100618.77;107685;1251;98464;-71
2023/04/03 04:01:22;;;;;;;16.30;9.20;;;;;;;6.73;83.89;100619.39;107640;1251;112076;-70
2023/04/03 04:03:53;;;;;;;14.80;10.70;;;;;;;6.72;84.20;100619.45;107608;1251;110740;-71
2023/04/03 04:06:25;;;;;;;17.80;11.90;;;;;;;6.75;84.17;100615.52;107648;1255;108250;-70
2023/04/03 04:08:56;;;;;;;18.00;12.90;;;;;;;6.77;84.01;100617.55;107504;1251;97816;-71
2023/04/03 04:11:27;;;;;;;22.30;13.10;;;;;;;6.74;83.76;100617.71;107683;1251;97722;-67
2023/04/03 04:13:56;;;;;;;16.70;13.40;;;;;;;6.71;83.98;100623.52;107689;1251;111970;-73
2023/04/03 04:16:26;;;;;;;23.80;16.60;;;;;;;6.67;84.05;100627.16;107496;1251;109175;-71
2023/04/03 04:18:56;;;;;;;16.70;12.50;;;;;;;6.64;83.90;100628.63;107663;1251;107595;-70
2023/04/03 04:21:26;;;;;;;20.60;13.50;;;;;;;6.62;84.09;100632.02;107665;1251;97856;-69
2023/04/03 04:23:55;;;;;;;17.50;12.80;;;;;;;6.59;83.91;100632.92;107747;1251;97945;-68
2023/04/03 04:26:24;;;;;;;20.40;11.80;;;;;;;6.57;83.96;100636.64;107667;1251;111195;-68
2023/04/03 04:28:53;;;;;;;19.30;12.60;;;;;;;6.57;83.93;100635.36;107614;1250;109786;-68
2023/04/03 04:31:22;;;;;;;19.20;12.90;;;;;;;6.57;84.28;100642.70;108052;1251;107977;-70
2023/04/03 04:33:51;;;;;;;17.60;12.50;;;;;;;6.60;84.19;100639.08;107654;1250;97818;-69
2023/04/03 04:36:20;;;;;;;17.80;11.90;;;;;;;6.64;84.08;100649.14;107731;1250;97928;-68
2023/04/03 04:38:52;;;;;;;18.70;12.10;;;;;;;6.62;84.04;100648.20;107793;1250;111126;-70
2023/04/03 04:41:22;;;;;;;14.20;10.00;;;;;;;6.59;83.73;100652.91;107727;1250;109455;-70
2023/04/03 04:43:52;;;;;;;17.00;10.70;;;;;;;6.55;83.35;100653.15;107713;1250;105531;-70
2023/04/03 04:46:22;;;;;;;16.10;11.10;;;;;;;6.54;83.29;100653.05;107688;1250;97938;-72
2023/04/03 04:48:54;;;;;;;14.90;10.40;;;;;;;6.55;83.57;100659.23;107724;1250;97818;-69
2023/04/03 04:51:22;;;;;;;17.20;11.00;;;;;;;6.54;83.33;100659.99;107796;1250;111470;-70
2023/04/03 04:53:51;;;;;;;13.40;9.50;;;;;;;6.54;83.28;100665.52;107723;1256;109048;-69
2023/04/03 04:56:25;;;;;;;15.40;9.90;;;;;;;6.55;83.13;100674.36;107692;1251;107829;-69
2023/04/03 04:58:55;;;;;;;18.00;10.90;;;;;;;6.52;82.60;100678.02;107691;1251;97831;-68
2023/04/03 05:01:24;;;;;;;16.50;9.90;;;;;;;6.52;82.43;100680.12;107777;1251;97829;-68
2023/04/03 05:04:02;;;;;;;14.30;9.90;;;;;;;6.51;81.90;100682.69;107665;1251;111822;-68
2023/04/03 05:06:31;;;;;;;14.20;9.80;;;;;;;6.50;82.03;100683.30;107755;1251;109856;-70
2023/04/03 05:09:01;;;;;;;14.80;10.20;;;;;;;6.48;81.89;100681.46;107677;1256;107757;-71
2023/04/03 05:11:30;;;;;;;14.90;10.20;;;;;;;6.47;81.94;100684.59;107590;1251;97912;-72
2023/04/03 05:13:59;;;;;;;16.70;10.00;;;;;;;6.47;81.81;100689.08;107900;1248;97718;-73
2023/04/03 05:16:31;;;;;;;14.60;10.50;;;;;;;6.46;81.80;100686.08;107924;1248;112060;-69
2023/04/03 05:19:00;;;;;;;11.60;9.50;;;;;;;6.45;81.64;100686.33;107578;1251;108716;-70
2023/04/03 05:21:32;;;;;;;12.20;9.40;;;;;;;6.42;81.81;100689.90;107724;1250;107842;-71
2023/04/03 05:24:03;;;;;;;17.80;9.60;;;;;;;6.43;81.87;100690.42;107755;1250;97853;-70
2023/04/03 05:26:33;;;;;;;15.70;10.50;;;;;;;6.43;82.18;100690.98;107687;1250;97698;-70
2023/04/03 05:29:03;;;;;;;11.80;9.10;;;;;;;6.45;81.61;100695.30;107739;1250;112147;-70
2023/04/03 05:31:33;;;;;;;12.70;9.40;;;;;;;6.44;81.55;100692.80;107673;1251;109234;-69
2023/04/03 05:34:02;;;;;;;13.60;9.40;;;;;;;6.45;81.14;100697.89;107683;1250;106269;-71
2023/04/03 05:36:31;;;;;;;14.40;10.00;;;;;;;6.47;80.75;100693.33;107715;1250;97836;-69
2023/04/03 05:39:03;;;;;;;17.40;10.70;;;;;;;6.49;80.82;100695.34;107694;1250;97898;-71
2023/04/03 05:41:33;;;;;;;15.20;10.10;;;;;;;6.52;80.86;100701.52;107694;1250;111929;-73
2023/04/03 05:44:02;;;;;;;12.70;9.70;;;;;;;6.54;80.70;100698.82;107708;1251;110401;-68
2023/04/03 05:46:31;;;;;;;14.30;9.70;;;;;;;6.56;80.42;100703.33;107645;1251;107734;-69
2023/04/03 05:49:03;;;;;;;12.20;8.90;;;;;;;6.58;80.18;100702.30;107755;1249;97801;-69
2023/04/03 05:51:35;;;;;;;14.40;10.00;;;;;;;6.61;80.09;100699.84;107738;1250;97721;-67
2023/04/03 05:54:19;;;;;;;17.10;9.00;;;;;;;6.64;79.63;100701.16;107719;1251;112135;-71
2023/04/03 05:56:49;;;;;;;12.70;9.20;;;;;;;6.67;79.42;100702.43;107739;1250;109081;-70
2023/04/03 05:59:19;;;;;;;13.70;10.30;;;;;;;6.71;79.54;100703.51;107578;1250;107846;-69
2023/04/03 06:01:50;;;;;;;20.10;10.20;;;;;;;6.73;78.94;100703.70;107629;1250;97901;-68
2023/04/03 06:04:18;;;;;;;18.30;11.00;;;;;;;6.74;78.50;100710.60;107768;1250;98443;-70
2023/04/03 06:06:57;;;;;;;18.90;10.80;;;;;;;6.75;78.68;100707.35;107614;1251;111765;-68
2023/04/03 06:09:28;;;;;;;13.20;9.80;;;;;;;6.77;78.07;100706.33;107668;1253;108920;-69
2023/04/03 06:11:58;;;;;;;13.40;8.90;;;;;;;6.78;77.70;100711.18;107658;1251;108705;-70
2023/04/03 06:14:28;;;;;;;15.90;9.00;;;;;;;6.80;77.69;100711.27;107668;1251;97857;-69
2023/04/03 06:16:58;;;;;;;16.00;9.00;;;;;;;6.83;77.79;100724.02;107686;1251;97822;-69
2023/04/03 06:19:26;;;;;;;15.60;8.50;;;;;;;6.83;77.35;100716.89;107704;1248;112391;-71
2023/04/03 06:21:57;;;;;;;12.00;8.10;;;;;;;6.85;77.35;100724.77;107791;1249;109060;-69
2023/04/03 06:24:26;;;;;;;8.40;6.70;;;;;;;6.87;77.37;100719.59;107658;1251;108558;-69
2023/04/03 06:26:54;;;;;;;13.20;6.30;;;;;;;6.88;77.07;100724.88;107618;1253;97841;-69
2023/04/03 06:29:23;;;;;;;10.40;5.30;;;;;;;6.90;76.75;100726.75;107785;1251;98358;-67
2023/04/03 06:31:52;;;;;;;8.50;5.70;;;;;;;6.91;76.49;100727.17;107629;1251;112164;-68
2023/04/03 06:34:21;;;;;;;13.80;10.40;;;;;;;6.94;76.28;100734.35;107627;1250;108871;-71
2023/04/03 06:36:50;;;;;;;11.60;6.70;;;;;;;6.95;76.31;100726.92;107583;1249;106824;-68
2023/04/03 06:39:22;;;;;;;5.50;4.30;;;;;;;7.02;76.72;100731.14;107613;1251;97819;-69
2023/04/03 06:41:51;;;;;;;6.30;3.60;;;;;;;7.12;76.16;100737.39;107691;1251;98337;-70
2023/04/03 06:44:27;;;;;;;4.40;3.50;;;;;;;7.16;75.16;100731.95;107594;1250;112187;-69
2023/04/03 06:46:56;;;;;;;5.90;4.00;;;;;;;7.21;75.36;100734.61;107640;1250;109102;-69
2023/04/03 06:49:25;;;;;;;4.40;3.50;;;;;;;7.27;74.68;100739.02;107635;1250;109181;-69
2023/04/03 06:51:53;;;;;;;13.20;3.60;;;;;;;7.31;74.35;100737.93;107567;1250;97877;-68
2023/04/03 06:54:23;;;;;;;5.40;3.00;;;;;;;7.37;74.11;100740.90;107521;1250;99485;-68
2023/04/03 06:56:51;;;;;;;4.80;3.10;;;;;;;7.40;73.95;100744.09;107636;1251;111250;-69
2023/04/03 06:59:20;;;;;;;5.00;3.40;;;;;;;7.45;73.86;100748.71;107664;1250;108610;-69
2023/04/03 07:01:49;;;;;;;4.90;3.50;;;;;;;7.52;73.58;100743.33;107607;1250;107720;-69
2023/04/03 07:04:19;;;;;;;7.90;3.60;;;;;;;7.61;73.92;100747.84;107667;1251;97858;-68
2023/04/03 07:06:48;;;;;;;7.20;4.10;;;;;;;7.71;73.73;100751.18;107747;1251;97696;-69
2023/04/03 07:09:16;;;;;;;5.70;3.70;;;;;;;7.78;73.36;100755.42;107687;1251;111751;-70
2023/04/03 07:11:45;;;;;;;3.90;2.90;;;;;;;7.80;73.05;100754.58;107641;1250;109595;-70
2023/04/03 07:14:14;;;;;;;4.20;3.00;;;;;;;7.92;73.45;100754.02;107663;1250;108188;-70
2023/04/03 07:16:42;;;;;;;3.50;2.70;;;;;;;8.03;72.55;100754.80;107635;1250;97805;-70
2023/04/03 07:19:11;;;;;;;4.60;2.80;;;;;;;8.13;72.54;100760.21;107767;1251;98423;-70
2023/04/03 07:21:41;;;;;;;5.60;2.60;;;;;;;8.22;72.79;100766.74;107662;1251;111752;-70
2023/04/03 07:24:11;;;;;;;7.30;2.30;;;;;;;8.24;71.60;100770.98;107587;1250;109521;-73
2023/04/03 07:26:45;;;;;;;2.60;2.00;;;;;;;8.14;70.32;100776.47;107664;1251;107906;-71
2023/04/03 07:29:13;;;;;;;4.20;2.60;;;;;;;8.11;70.92;100776.86;107597;1251;97714;-71
2023/04/03 07:31:43;;;;;;;4.40;2.80;;;;;;;8.15;70.91;100775.45;107616;1251;97809;-71
2023/04/03 07:34:11;;;;;;;5.10;2.10;;;;;;;8.22;70.85;100775.86;107630;1253;112487;-71
2023/04/03 07:36:41;;;;;;;3.20;2.40;;;;;;;8.20;70.55;100778.66;107661;1250;109663;-70
2023/04/03 07:39:10;;;;;;;4.00;2.40;;;;;;;8.14;70.21;100785.34;107681;1251;107640;-69
2023/04/03 07:41:39;;;;;;;2.90;2.10;;;;;;;8.10;70.51;100787.48;107660;1250;97859;-72
2023/04/03 07:44:09;;;;;;;7.60;2.70;;;;;;;8.09;70.26;100793.77;107622;1250;97705;-72
2023/04/03 07:46:38;;;;;;;2.30;2.10;;;;;;;8.09;70.82;100788.07;107717;1251;111127;-73
2023/04/03 07:49:08;;;;;;;4.30;2.60;;;;;;;8.21;71.03;100793.83;107689;1250;109239;-71
2023/04/03 07:51:36;;;;;;;4.40;2.70;;;;;;;8.19;70.41;100799.64;107598;1253;108444;-70
2023/04/03 07:54:05;;;;;;;5.40;2.50;;;;;;;8.13;70.24;100804.02;107646;1251;97912;-69
2023/04/03 07:56:34;;;;;;;2.30;2.10;;;;;;;8.14;70.51;100803.23;107686;1251;97818;-70
2023/04/03 07:59:03;;;;;;;2.60;2.20;;;;;;;8.18;70.38;100810.99;106860;1250;1105018;-71
2023/04/03 08:01:33;;;;;;;6.50;2.30;;;;;;;8.13;69.84;100825.45;107624;1250;108208;-69
2023/04/03 08:04:05;;;;;;;2.90;2.20;;;;;;;8.07;70.00;100821.30;107650;1251;107918;-70
2023/04/03 08:06:36;;;;;;;4.10;2.70;;;;;;;8.09;70.41;100820.75;107657;1251;97777;-70
2023/04/03 08:09:15;;;;;;;2.80;2.20;;;;;;;8.15;70.66;100816.77;107593;1256;97700;-70
2023/04/03 08:11:44;;;;;;;9.00;3.00;;;;;;;8.18;70.50;100823.64;107734;1250;110910;-71
2023/04/03 08:14:18;;;;;;;4.00;2.50;;;;;;;8.16;70.06;100819.86;107703;1251;109094;-69
2023/04/03 08:16:47;;;;;;;;;;;;;;;8.21;70.53;100823.06;107712;1251;107652;-69
2023/04/03 08:19:17;;;;;;;3.90;2.50;;;;;;;8.33;70.64;100818.20;107671;1254;97850;-70
2023/04/03 08:22:02;;;;;;;5.90;2.00;;;;;;;8.48;69.91;100821.56;107648;1250;97983;-68
2023/04/03 08:24:35;;;;;;;3.30;2.40;;;;;;;8.53;69.43;100819.20;107670;1250;112192;-69
2023/04/03 08:27:07;;;;;;;7.10;2.60;;;;;;;8.59;68.52;100826.95;107670;1250;109187;-68
2023/04/03 08:29:38;;;;;;;3.10;2.70;;;;;;;8.58;68.64;100825.94;107666;1251;108495;-70
2023/04/03 08:32:11;;;;;;;2.50;2.30;;;;;;;8.66;68.82;100831.38;107652;1251;98550;-69
2023/04/03 08:34:39;;;;;;;3.20;2.50;;;;;;;8.75;68.61;100836.05;107665;1250;98374;-71
2023/04/03 08:37:08;;;;;;;2.50;2.00;;;;;;;8.87;68.27;100842.05;107630;1250;111290;-69
2023/04/03 08:39:37;;;;;;;4.00;2.60;;;;;;;8.93;67.36;100852.27;107643;1250;109227;-71
2023/04/03 08:42:24;;;;;;;3.10;1.90;;;;;;;8.92;66.95;100850.25;107610;1250;108209;-70
2023/04/03 08:45:01;;;;;;;3.80;1.20;;;;;;;8.98;66.73;100855.33;107636;1250;97894;-69
2023/04/03 08:48:06;;;;;;;1.50;1.40;;;;;;;8.97;65.59;100867.38;107589;1249;98338;-69
2023/04/03 08:50:46;;;;;;;4.00;1.50;;;;;;;8.90;65.09;100876.65;107674;1251;112260;-70
2023/04/03 08:53:19;;;;;;;2.50;1.50;;;;;;;8.92;65.07;100884.05;107603;1257;108051;-68
2023/04/03 08:55:49;;;;;;;;;;;;;;;8.88;64.47;100898.29;107698;1250;107618;-72
2023/04/03 08:58:24;;;;;;;2.80;1.50;;;;;;;8.85;64.72;100897.33;107753;1250;97790;-70
2023/04/03 09:01:03;;;;;;;2.90;1.40;;;;;;;8.85;64.84;100905.50;107701;1251;97816;-71
2023/04/03 09:03:37;;;;;;;7.10;2.10;;;;;;;8.79;64.50;100911.00;107729;1251;111095;-70
2023/04/03 09:06:14;;;;;;;2.20;1.60;;;;;;;8.63;64.50;100908.52;107617;1251;107750;-70
2023/04/03 09:09:30;;;;;;;5.80;1.90;;;;;;;8.54;65.10;100912.83;107611;1250;108438;-71
2023/04/03 09:12:25;;;;;;;4.00;1.90;;;;;;;8.48;65.51;100912.84;107464;1250;97886;-68
2023/04/03 09:15:18;;;;;;;1.60;1.40;;;;;;;8.52;66.22;100916.35;107766;1251;97740;-70
2023/04/03 09:18:11;;;;;;;3.90;1.50;;;;;;;8.69;66.46;100918.25;107672;1248;111453;-73
2023/04/03 09:20:58;;;;;;;1.30;1.10;;;;;;;8.78;66.14;100919.48;107624;1250;110034;-71
2023/04/03 09:23:33;;;;;;;1.80;1.00;;;;;;;8.85;65.95;100923.20;107558;1254;108724;-71
2023/04/03 09:26:51;;;;;;;1.70;1.20;;;;;;;8.92;64.97;100921.61;107608;1250;97826;-67
2023/04/03 09:29:23;;;;;;;2.90;1.40;;;;;;;8.97;64.24;100915.30;107577;1251;98118;-72
2023/04/03 09:32:00;;;;;;;1.20;1.10;;;;;;;9.08;63.56;100922.35;107652;1254;113070;-68
2023/04/03 09:34:36;;;;;;;1.30;1.10;;;;;;;9.17;63.74;100930.40;107707;1250;108681;-70
2023/04/03 09:37:08;;;;;;;4.80;0.90;;;;;;;9.20;62.83;100930.70;107559;1251;108056;-70
2023/04/03 09:39:53;;;;;;;0.90;0.80;;;;;;;9.28;62.47;100935.39;107744;1250;97815;-70
2023/04/03 09:42:23;;;;;;;2.80;1.00;;;;;;;9.37;61.91;100937.52;107752;1251;97729;-68
2023/04/03 09:44:57;;;;;;;0.90;0.70;;;;;;;9.47;61.93;100940.19;107722;1251;110762;-70
2023/04/03 09:47:29;;;;;;;1.00;0.70;;;;;;;9.55;61.53;100940.44;107674;1251;109450;-69
2023/04/03 09:50:17;;;;;;;0.80;0.80;;;;;;;9.68;61.14;100939.13;107628;1251;108645;-69
2023/04/03 09:52:48;;;;;;;0.80;0.80;;;;;;;9.83;60.33;100945.27;107721;1250;97959;-69
2023/04/03 09:55:27;;;;;;;1.00;0.70;;;;;;;9.97;60.86;100937.73;107686;1250;98417;-68
2023/04/03 09:57:59;;;;;;;1.10;1.00;;;;;;;10.10;60.67;100937.17;107679;1251;111680;-69
2023/04/03 10:00:35;;;;;;;0.60;0.60;;;;;;;10.29;60.23;100942.17;107721;1251;109667;-73
2023/04/03 10:03:21;;;;;;;1.10;0.50;;;;;;;10.43;58.70;100939.62;107692;1250;108262;-68
2023/04/03 10:05:51;;;;;;;1.60;0.70;;;;;;;10.54;57.76;100930.39;107641;1251;97887;-67
2023/04/03 10:08:26;;;;;;;0.60;0.50;;;;;;;10.71;57.46;100936.49;107722;1250;97860;-68
2023/04/03 10:11:18;;;;;;;0.40;0.40;;;;;;;10.79;56.66;100938.86;107668;1250;111535;-71
2023/04/03 10:13:59;;;;;;;3.40;0.70;;;;;;;10.92;56.91;100946.46;107555;1251;109397;-69
2023/04/03 10:16:37;;;;;;;1.00;0.70;;;;;;;11.10;57.04;100945.99;107673;1251;107695;-68
2023/04/03 10:19:26;;;;;;;1.00;0.90;;;;;;;11.22;57.06;100953.98;107673;1255;97804;-68
2023/04/03 10:22:00;;;;;;;0.70;0.60;;;;;;;11.14;55.43;100953.89;107672;1251;97828;-70
2023/04/03 10:24:36;;;;;;;4.00;0.80;;;;;;;11.20;55.07;100954.34;107569;1257;111340;-69
2023/04/03 10:27:16;;;;;;;0.50;0.50;;;;;;;11.25;55.09;100961.05;107696;1251;110040;-69
2023/04/03 10:30:16;;;;;;;0.60;0.60;;;;;;;11.28;55.10;100962.96;107630;1250;107823;-71
2023/04/03 10:33:19;;;;;;;0.90;0.60;;;;;;;11.25;55.18;100969.81;107544;1250;97821;-70
2023/04/03 10:36:08;;;;;;;2.10;0.50;;;;;;;11.30;54.53;100973.74;107637;1251;97705;-68
2023/04/03 10:38:55;;;;;;;0.50;0.50;;;;;;;11.40;53.80;100978.25;107693;1251;112912;-69
2023/04/03 10:41:30;;;;;;;4.10;0.80;;;;;;;11.45;54.18;100978.32;107557;1250;108311;-68
2023/04/03 10:44:24;;;;;;;0.70;0.50;;;;;;;11.56;54.30;100980.34;107656;1251;108458;-68
2023/04/03 10:47:02;;;;;;;0.90;0.50;;;;;;;11.54;54.31;100982.04;107630;1251;97816;-69
2023/04/03 10:49:47;;;;;;;4.60;0.70;;;;;;;11.53;54.80;100988.42;107616;1250;97861;-68
2023/04/03 10:52:55;;;;;;;1.60;0.70;;;;;;;11.43;53.94;100991.81;107561;1250;111894;-67
2023/04/03 10:55:36;;;;;;;0.80;0.50;;;;;;;11.15;53.97;100990.34;107715;1251;109059;-68
2023/04/03 10:58:07;;;;;;;1.00;0.80;;;;;;;10.93;55.01;100992.91;107615;1251;106695;-69
2023/04/03 11:00:46;;;;;;;0.90;0.70;;;;;;;10.78;55.60;101000.69;107616;1250;97810;-69
2023/04/03 11:03:26;;;;;;;0.70;0.70;;;;;;;10.61;56.13;100998.65;107734;1250;98354;-71
2023/04/03 11:05:57;;;;;;;1.50;0.70;;;;;;;10.52;56.58;100995.65;107733;1250;111730;-70
2023/04/03 11:08:51;;;;;;;0.90;0.70;;;;;;;10.56;56.94;100999.46;107700;1250;109073;-68
2023/04/03 11:11:25;;;;;;;1.20;0.60;;;;;;;10.54;56.70;101001.23;107532;1250;108464;-68
2023/04/03 11:14:16;;;;;;;0.60;0.60;;;;;;;10.54;56.36;101001.94;107818;1249;97869;-71
2023/04/03 11:16:59;;;;;;;0.80;0.70;;;;;;;10.48;56.93;101005.87;107537;1250;98377;-67
2023/04/03 11:19:38;;;;;;;3.20;0.80;;;;;;;10.42;56.63;101007.09;107746;1252;111837;-69
2023/04/03 11:22:13;;;;;;;0.70;0.70;;;;;;;10.37;57.04;101008.23;107615;1251;107730;-71
2023/04/03 11:24:46;;;;;;;4.80;0.80;;;;;;;10.39;57.17;101005.73;107640;1250;107826;-69
2023/04/03 11:27:22;;;;;;;5.10;0.60;;;;;;;10.36;56.67;101002.40;107721;1251;97953;-68
2023/04/03 11:29:53;;;;;;;5.20;0.90;;;;;;;10.38;56.98;101004.04;107683;1250;97883;-68
2023/04/03 11:32:53;;;;;;;2.90;0.80;;;;;;;10.36;56.43;101007.76;107572;1253;111751;-68
2023/04/03 11:35:24;;;;;;;5.10;1.10;;;;;;;10.15;56.69;101016.97;107702;1250;109853;-68
2023/04/03 11:37:54;;;;;;;1.00;0.60;;;;;;;10.18;57.47;101013.91;107580;1251;107650;-69
2023/04/03 11:40:27;;;;;;;4.30;0.80;;;;;;;10.23;57.47;101014.02;107703;1250;97848;-69
2023/04/03 11:43:20;;;;;;;1.50;1.00;;;;;;;10.24;56.87;101011.98;107592;1250;97797;-70